Mooresburg, Pennsylvania
Current Conditions -  °F | °C
As of 1:53 AM on Wednesday 22 Oct 2014 (Local Time) from KSEG Reporting Station
Broken Clouds Broken Clouds  
Wind Chill: 53°   Ceiling: 7000
Heat Index: 53°   Visibility: 10mi
Dew Point: 48°   Wind: 7mph
Humidity: 83%   Direction: 350°N
Pressure: 29.93"   Gusts: NA
Location:  41.0117°N, 76.6578°W
Report Text: KSEG 220553Z AUTO 35006KT 10SM FEW050 BKN070 BKN090 12/09 A2993 RMK AO2 SLP135 T01170089 10128 20094 58007
Loading
Personal Weather Stations






























Interactive Weather Map
Tropical Storm Tracking
New forecast layout! Learn more

10-Day Weather Forecast

Advertisements
Track Severe Weather on mobile